Time;durP1;ratioP1;P1;durP2;ratioP2;P2;SDS_P1;SDS_P2;PMS_P1;PMS_P2;Temp;Humidity;BMP_temperature;BMP_pressure;BME280_temperature;BME280_humidity;BME280_pressure;Samples;Min_cycle;Max_cycle;Signal;HPM_P1;HPM_P2
2022/01/06 00:00:05;;;;;;;;;;;4.30;99.90;;;;;;5133081;27;19919;-77
2022/01/06 00:02:31;;;;;;;;;;;4.30;99.90;;;;;;5098224;27;19927;-76
2022/01/06 00:04:56;;;;;;;;;;;4.40;99.90;;;;;;5114777;28;19911;-83
2022/01/06 00:07:22;;;;;;;;;;;4.50;99.90;;;;;;5133638;28;19907;-76
2022/01/06 00:09:49;;;;;;;;;;;4.50;99.90;;;;;;5095982;28;19950;-76
2022/01/06 00:12:19;;;;;;;;;;;4.50;99.90;;;;;;5133058;27;19918;-76
2022/01/06 00:15:04;;;;;;;;;;;4.60;99.90;;;;;;5098349;28;19916;-76
2022/01/06 00:17:58;;;;;;;;;;;4.50;99.90;;;;;;5115987;27;19964;-76
2022/01/06 00:25:52;;;;;;;;;;;4.40;99.90;;;;;;5122281;27;19972;-75
2022/01/06 00:28:18;;;;;;;;;;;4.40;99.90;;;;;;5121985;27;19915;-76
2022/01/06 00:30:44;;;;;;;;;;;4.40;99.90;;;;;;5137664;27;19911;-75
2022/01/06 00:33:10;;;;;;;;;;;4.40;99.90;;;;;;5136912;27;19997;-75
2022/01/06 00:35:35;;;;;;;;;;;4.30;99.90;;;;;;5137487;27;19915;-76
2022/01/06 00:38:01;;;;;;;;;;;4.30;99.90;;;;;;5136938;27;19911;-83
2022/01/06 00:40:27;;;;;;;;;;;4.30;99.90;;;;;;5118549;27;19938;-75
2022/01/06 00:42:52;;;;;;;;;;;4.40;99.90;;;;;;5118832;27;19965;-76
2022/01/06 00:45:18;;;;;;;;;;;4.30;99.90;;;;;;5136421;27;20322;-75
2022/01/06 00:47:44;;;;;;;;;;;4.40;99.90;;;;;;5137054;27;19907;-76
2022/01/06 00:50:11;;;;;;;;;;;4.30;99.90;;;;;;5136202;27;19920;-76
2022/01/06 00:52:36;;;;;;;;;;;4.30;99.90;;;;;;5136240;27;19964;-76
2022/01/06 00:55:02;;;;;;;;;;;4.30;99.90;;;;;;5136716;27;19919;-82
2022/01/06 00:57:28;;;;;;;;;;;4.20;99.90;;;;;;5118983;27;19911;-77
2022/01/06 00:59:53;;;;;;;;;;;4.20;99.90;;;;;;5118558;27;20374;-77
2022/01/06 01:02:19;;;;;;;;;;;4.10;99.90;;;;;;5089394;28;19924;-77
2022/01/06 01:04:45;;;;;;;;;;;4.10;99.90;;;;;;5098627;27;20347;-77
2022/01/06 01:07:10;;;;;;;;;;;4.10;99.90;;;;;;5117794;27;20014;-77
2022/01/06 01:09:36;;;;;;;;;;;4.00;99.90;;;;;;5097220;28;19916;-76
2022/01/06 01:12:02;;;;;;;;;;;4.00;99.90;;;;;;5117972;27;20012;-77
2022/01/06 01:14:31;;;;;;;;;;;4.00;99.90;;;;;;5096930;28;19958;-77
2022/01/06 01:16:59;;;;;;;;;;;3.90;99.90;;;;;;5114995;28;19908;-77
2022/01/06 01:19:25;;;;;;;;;;;3.90;99.90;;;;;;5115393;28;19908;-76
2022/01/06 01:21:53;;;;;;;;;;;3.80;99.90;;;;;;5115846;28;20351;-77
2022/01/06 01:24:19;;;;;;;;;;;3.80;99.90;;;;;;5134345;27;19919;-77
2022/01/06 01:26:45;;;;;;;;;;;3.80;99.90;;;;;;5136724;27;20377;-76
2022/01/06 01:29:18;;;;;;;;;;;3.80;99.90;;;;;;5117259;27;19962;-77
2022/01/06 01:31:51;;;;;;;;;;;3.80;99.90;;;;;;5118007;27;19999;-76
2022/01/06 01:34:22;;;;;;;;;;;3.70;99.90;;;;;;5117353;27;19912;-76
2022/01/06 01:36:48;;;;;;;;;;;3.70;99.90;;;;;;5118115;27;19950;-76
2022/01/06 01:39:14;;;;;;;;;;;3.60;99.90;;;;;;5117562;27;19956;-76
2022/01/06 01:41:39;;;;;;;;;;;3.60;99.90;;;;;;5100605;27;19944;-77
2022/01/06 01:44:11;;;;;;;;;;;3.60;99.90;;;;;;5136159;27;19915;-77
2022/01/06 01:46:43;;;;;;;;;;;3.60;99.90;;;;;;5136145;27;19915;-77
2022/01/06 01:49:29;;;;;;;;;;;3.60;99.90;;;;;;5136023;27;19914;-84
2022/01/06 01:51:55;;;;;;;;;;;3.60;99.90;;;;;;5133872;27;19948;-77
2022/01/06 01:54:20;;;;;;;;;;;3.50;99.90;;;;;;5134801;27;20271;-76
2022/01/06 01:56:46;;;;;;;;;;;3.50;99.90;;;;;;5135929;27;19911;-76
2022/01/06 01:59:12;;;;;;;;;;;3.50;99.90;;;;;;5133838;27;19923;-79
2022/01/06 02:01:38;;;;;;;;;;;3.50;99.90;;;;;;5117350;27;19912;-76
2022/01/06 02:04:03;;;;;;;;;;;3.40;99.90;;;;;;5117198;27;19918;-81
2022/01/06 02:06:29;;;;;;;;;;;3.50;99.90;;;;;;5115803;27;20390;-76
2022/01/06 02:08:54;;;;;;;;;;;3.40;99.90;;;;;;5116795;27;19998;-76
2022/01/06 02:11:21;;;;;;;;;;;3.40;99.90;;;;;;5135237;27;20352;-76
2022/01/06 02:13:53;;;;;;;;;;;3.40;99.90;;;;;;5116390;27;20347;-76
2022/01/06 02:16:20;;;;;;;;;;;3.30;99.90;;;;;;5116030;27;20363;-76
2022/01/06 02:18:46;;;;;;;;;;;3.30;99.90;;;;;;5135145;27;19938;-76
2022/01/06 02:21:11;;;;;;;;;;;3.30;99.90;;;;;;5134774;27;20366;-83
2022/01/06 02:23:38;;;;;;;;;;;3.30;99.90;;;;;;5116696;27;19919;-76
2022/01/06 02:26:03;;;;;;;;;;;3.30;99.90;;;;;;5116169;27;19920;-76
2022/01/06 02:28:29;;;;;;;;;;;3.20;99.90;;;;;;5115694;27;19907;-76
2022/01/06 02:30:55;;;;;;;;;;;3.20;99.90;;;;;;5099576;27;19920;-77
2022/01/06 02:33:21;;;;;;;;;;;3.30;99.90;;;;;;5116662;27;20275;-76
2022/01/06 02:35:48;;;;;;;;;;;3.30;99.90;;;;;;5115900;28;19908;-76
2022/01/06 02:38:13;;;;;;;;;;;3.30;99.90;;;;;;5134728;27;20080;-82
2022/01/06 02:40:39;;;;;;;;;;;3.30;99.90;;;;;;5134644;27;19961;-76
2022/01/06 02:43:06;;;;;;;;;;;3.30;99.90;;;;;;5134861;27;19919;-76
2022/01/06 02:45:33;;;;;;;;;;;3.30;99.90;;;;;;5115988;27;19916;-76
2022/01/06 02:48:00;;;;;;;;;;;3.30;99.90;;;;;;5116058;27;20280;-76
2022/01/06 02:50:26;;;;;;;;;;;3.30;99.90;;;;;;5134193;27;19907;-75
2022/01/06 02:52:51;;;;;;;;;;;3.30;99.90;;;;;;5134666;27;20272;-75
2022/01/06 02:55:17;;;;;;;;;;;3.30;99.90;;;;;;5116061;27;19918;-81
2022/01/06 02:57:43;;;;;;;;;;;3.20;99.90;;;;;;5134521;27;20290;-77
2022/01/06 03:00:10;;;;;;;;;;;3.20;99.90;;;;;;5116223;27;19915;-76
2022/01/06 03:02:36;;;;;;;;;;;3.10;99.90;;;;;;5115525;27;19924;-76
2022/01/06 03:05:02;;;;;;;;;;;3.10;99.90;;;;;;5099246;27;19915;-76
2022/01/06 03:07:27;;;;;;;;;;;3.10;99.90;;;;;;5116754;27;20416;-76
2022/01/06 03:09:55;;;;;;;;;;;3.10;99.90;;;;;;5130247;27;19951;-75
2022/01/06 03:12:32;;;;;;;;;;;3.00;99.90;;;;;;5078310;28;19916;-76
2022/01/06 03:14:57;;;;;;;;;;;3.00;99.90;;;;;;5095660;28;19911;-75
2022/01/06 03:17:23;;;;;;;;;;;3.10;99.90;;;;;;5127381;27;19915;-75
2022/01/06 03:19:48;;;;;;;;;;;3.10;99.90;;;;;;5112558;27;19911;-75
2022/01/06 03:22:14;;;;;;;;;;;3.00;99.90;;;;;;5098766;27;19926;-75
2022/01/06 03:24:42;;;;;;;;;;;3.00;99.90;;;;;;5097218;27;21645;-75
2022/01/06 03:27:07;;;;;;;;;;;3.10;99.90;;;;;;5115943;27;19915;-75
2022/01/06 03:29:33;;;;;;;;;;;3.00;99.90;;;;;;5114901;27;19915;-75
2022/01/06 03:31:59;;;;;;;;;;;3.00;99.90;;;;;;5133822;27;19994;-75
2022/01/06 03:34:25;;;;;;;;;;;3.10;99.90;;;;;;5114552;27;19946;-75
2022/01/06 03:36:50;;;;;;;;;;;3.10;99.90;;;;;;5098917;27;19911;-76
2022/01/06 03:39:16;;;;;;;;;;;3.20;99.90;;;;;;5134117;27;19907;-76
2022/01/06 03:41:41;;;;;;;;;;;3.20;99.90;;;;;;5133488;27;19922;-75
2022/01/06 03:44:07;;;;;;;;;;;3.30;99.90;;;;;;5133748;27;19946;-75
2022/01/06 03:46:33;;;;;;;;;;;3.20;99.90;;;;;;5114908;27;19912;-75
2022/01/06 03:48:58;;;;;;;;;;;3.20;99.90;;;;;;5118499;27;19927;-76
2022/01/06 03:51:24;;;;;;;;;;;3.30;99.90;;;;;;5108649;27;19922;-76
2022/01/06 03:53:51;;;;;;;;;;;3.30;99.90;;;;;;5133708;27;19915;-76
2022/01/06 03:56:17;;;;;;;;;;;3.30;99.90;;;;;;5115344;27;20248;-77
2022/01/06 03:58:44;;;;;;;;;;;3.30;99.90;;;;;;5114936;27;20226;-77
2022/01/06 04:01:09;;;;;;;;;;;3.30;99.90;;;;;;5133646;27;19957;-77
2022/01/06 04:03:35;;;;;;;;;;;3.30;99.90;;;;;;5114186;28;19927;-77
2022/01/06 04:06:00;;;;;;;;;;;3.30;99.90;;;;;;5133633;27;19915;-77
2022/01/06 04:08:26;;;;;;;;;;;3.30;99.90;;;;;;5097700;28;20312;-77
2022/01/06 04:10:51;;;;;;;;;;;3.40;99.90;;;;;;5115224;28;19919;-77
2022/01/06 04:13:17;;;;;;;;;;;3.40;99.90;;;;;;5114879;28;20273;-77
2022/01/06 04:15:44;;;;;;;;;;;3.40;99.90;;;;;;5114948;28;20381;-76
2022/01/06 04:18:10;;;;;;;;;;;3.40;99.90;;;;;;5121157;28;19938;-76
2022/01/06 04:20:35;;;;;;;;;;;3.40;99.90;;;;;;5077396;28;19916;-77
2022/01/06 04:23:01;;;;;;;;;;;3.50;99.90;;;;;;5126634;28;19919;-77
2022/01/06 04:25:26;;;;;;;;;;;3.50;99.90;;;;;;5114301;28;19919;-81
2022/01/06 04:27:52;;;;;;;;;;;3.50;99.90;;;;;;5098063;28;19923;-77
2022/01/06 04:30:17;;;;;;;;;;;3.50;99.90;;;;;;5115455;28;20271;-76
2022/01/06 04:32:43;;;;;;;;;;;3.50;99.90;;;;;;5132630;28;19911;-77
2022/01/06 04:35:08;;;;;;;;;;;3.50;99.90;;;;;;5097881;28;19919;-78
2022/01/06 04:37:34;;;;;;;;;;;3.50;99.90;;;;;;5132977;28;19912;-77
2022/01/06 04:40:00;;;;;;;;;;;3.70;99.90;;;;;;5114979;28;19915;-77
2022/01/06 04:42:25;;;;;;;;;;;3.70;99.90;;;;;;5097235;28;20018;-82
2022/01/06 04:44:51;;;;;;;;;;;3.70;99.90;;;;;;5113203;28;19918;-77
2022/01/06 04:47:16;;;;;;;;;;;3.70;99.90;;;;;;5115142;28;19908;-77
2022/01/06 04:49:42;;;;;;;;;;;3.70;99.90;;;;;;5097267;28;19916;-78
2022/01/06 04:52:07;;;;;;;;;;;3.70;99.90;;;;;;5133441;28;19908;-78
2022/01/06 04:54:33;;;;;;;;;;;3.70;99.90;;;;;;5114153;28;19907;-78
2022/01/06 04:56:58;;;;;;;;;;;3.60;99.90;;;;;;5097888;28;19915;-77
2022/01/06 04:59:24;;;;;;;;;;;3.60;99.90;;;;;;5107176;28;20325;-78
2022/01/06 05:01:49;;;;;;;;;;;3.50;99.90;;;;;;5097596;28;19912;-77
2022/01/06 05:04:15;;;;;;;;;;;3.50;99.90;;;;;;5119863;27;19907;-79
2022/01/06 05:06:40;;;;;;;;;;;3.50;99.90;;;;;;5118355;27;19919;-77
2022/01/06 05:09:06;;;;;;;;;;;3.40;99.90;;;;;;5101620;27;19918;-79
2022/01/06 05:11:32;;;;;;;;;;;3.40;99.90;;;;;;5100812;27;19916;-82
2022/01/06 05:13:57;;;;;;;;;;;3.20;99.90;;;;;;5137063;27;19911;-78
2022/01/06 05:16:23;;;;;;;;;;;3.20;99.90;;;;;;5101389;27;19919;-77
2022/01/06 05:18:49;;;;;;;;;;;3.20;99.90;;;;;;5136700;27;20321;-77
2022/01/06 05:21:15;;;;;;;;;;;3.20;99.90;;;;;;5118141;27;19908;-77
2022/01/06 05:23:41;;;;;;;;;;;3.20;99.90;;;;;;5135789;27;20374;-79
2022/01/06 05:26:07;;;;;;;;;;;3.10;99.90;;;;;;5135391;27;19919;-78
2022/01/06 05:28:32;;;;;;;;;;;3.10;99.90;;;;;;5136178;27;19916;-84
2022/01/06 05:30:58;;;;;;;;;;;3.10;99.90;;;;;;5117837;27;19919;-79
2022/01/06 05:33:24;;;;;;;;;;;3.10;99.90;;;;;;5101069;27;19916;-78
2022/01/06 05:35:50;;;;;;;;;;;3.20;99.90;;;;;;5117087;27;19907;-79
2022/01/06 05:38:16;;;;;;;;;;;3.20;99.90;;;;;;5136042;27;19961;-79
2022/01/06 05:40:41;;;;;;;;;;;3.30;99.90;;;;;;5135137;27;19918;-79
2022/01/06 05:43:07;;;;;;;;;;;3.30;99.90;;;;;;5096893;28;19923;-79
2022/01/06 05:45:32;;;;;;;;;;;3.30;99.90;;;;;;5097461;28;19918;-79
2022/01/06 05:47:58;;;;;;;;;;;3.20;99.90;;;;;;5083618;28;19927;-79
2022/01/06 05:50:24;;;;;;;;;;;3.10;99.90;;;;;;5114189;28;20368;-78
2022/01/06 05:52:50;;;;;;;;;;;3.10;99.90;;;;;;5096802;28;20287;-79
2022/01/06 05:55:15;;;;;;;;;;;3.10;99.90;;;;;;5097159;28;19912;-79
2022/01/06 05:57:41;;;;;;;;;;;3.10;99.90;;;;;;5099268;27;19915;-80
2022/01/06 06:00:07;;;;;;;;;;;3.20;99.90;;;;;;5117395;27;19912;-81
2022/01/06 06:02:33;;;;;;;;;;;3.10;99.90;;;;;;5117348;27;19915;-79
2022/01/06 06:04:58;;;;;;;;;;;3.10;99.90;;;;;;5116780;27;19923;-79
2022/01/06 06:07:24;;;;;;;;;;;3.00;99.90;;;;;;5117170;27;20446;-79
2022/01/06 06:09:50;;;;;;;;;;;3.00;99.90;;;;;;5116652;27;20010;-78
2022/01/06 06:12:16;;;;;;;;;;;3.10;99.90;;;;;;5115896;27;19994;-79
2022/01/06 06:14:41;;;;;;;;;;;3.10;99.90;;;;;;5116761;27;20313;-80
2022/01/06 06:17:07;;;;;;;;;;;3.00;99.90;;;;;;5116951;27;19911;-79
2022/01/06 06:19:33;;;;;;;;;;;3.00;99.90;;;;;;5135376;27;19911;-80
2022/01/06 06:21:58;;;;;;;;;;;2.90;99.90;;;;;;5098937;27;20021;-79
2022/01/06 06:24:24;;;;;;;;;;;2.90;99.90;;;;;;5135667;27;19915;-79
2022/01/06 06:26:50;;;;;;;;;;;2.90;99.90;;;;;;5134704;27;19927;-79
2022/01/06 06:29:19;;;;;;;;;;;2.90;99.90;;;;;;5116397;27;19959;-79
2022/01/06 06:31:44;;;;;;;;;;;3.00;99.90;;;;;;5116292;27;19911;-80
2022/01/06 06:34:11;;;;;;;;;;;3.10;99.90;;;;;;5116316;27;19915;-82
2022/01/06 06:36:37;;;;;;;;;;;3.10;99.90;;;;;;5134998;27;19957;-79
2022/01/06 06:39:03;;;;;;;;;;;3.20;99.90;;;;;;5115921;27;19926;-79
2022/01/06 06:41:28;;;;;;;;;;;3.10;99.90;;;;;;5116839;27;19908;-80
2022/01/06 06:43:54;;;;;;;;;;;3.10;99.90;;;;;;5134242;27;19920;-79
2022/01/06 06:46:19;;;;;;;;;;;3.00;99.90;;;;;;5116574;27;19996;-80
2022/01/06 06:48:45;;;;;;;;;;;3.10;99.90;;;;;;5116006;27;20382;-80
2022/01/06 06:51:13;;;;;;;;;;;3.00;99.90;;;;;;5134606;27;19918;-80
2022/01/06 06:53:39;;;;;;;;;;;3.00;99.90;;;;;;5134911;27;20282;-79
2022/01/06 06:56:05;;;;;;;;;;;3.00;99.90;;;;;;5115380;27;20015;-80
2022/01/06 06:58:30;;;;;;;;;;;2.90;99.90;;;;;;5116664;27;19914;-80
2022/01/06 07:00:56;;;;;;;;;;;2.90;99.90;;;;;;5093648;27;20372;-80
2022/01/06 07:03:21;;;;;;;;;;;2.90;99.90;;;;;;5116484;27;19920;-79
2022/01/06 07:05:47;;;;;;;;;;;2.90;99.90;;;;;;5099198;27;20415;-80
2022/01/06 07:08:12;;;;;;;;;;;2.90;99.90;;;;;;5134188;27;19998;-80
2022/01/06 07:10:38;;;;;;;;;;;3.00;99.90;;;;;;5116036;27;19919;-79
2022/01/06 07:13:03;;;;;;;;;;;3.00;99.90;;;;;;5115646;27;19950;-80
2022/01/06 07:15:29;;;;;;;;;;;3.10;99.90;;;;;;5134220;27;19911;-79
2022/01/06 07:17:54;;;;;;;;;;;3.10;99.90;;;;;;5098560;27;20417;-80
2022/01/06 07:20:20;;;;;;;;;;;3.10;99.90;;;;;;5098834;27;19918;-79
2022/01/06 07:22:45;;;;;;;;;;;3.10;99.90;;;;;;5114619;27;19984;-82
2022/01/06 07:25:11;;;;;;;;;;;3.10;99.90;;;;;;5107193;27;19927;-80
2022/01/06 07:27:37;;;;;;;;;;;3.10;99.90;;;;;;5134273;27;19908;-80
2022/01/06 07:30:04;;;;;;;;;;;3.20;99.90;;;;;;5115199;27;20349;-80
2022/01/06 07:32:29;;;;;;;;;;;3.20;99.90;;;;;;5115627;27;19965;-80
2022/01/06 07:34:55;;;;;;;;;;;3.30;99.90;;;;;;5097727;27;19967;-80
2022/01/06 07:37:20;;;;;;;;;;;3.30;99.90;;;;;;5100554;28;20364;-80
2022/01/06 07:39:46;;;;;;;;;;;3.30;99.90;;;;;;5078319;28;20355;-81
2022/01/06 07:42:11;;;;;;;;;;;3.30;99.90;;;;;;5080425;27;19924;-80
2022/01/06 07:44:37;;;;;;;;;;;3.20;99.90;;;;;;5094785;28;19916;-79
2022/01/06 07:47:03;;;;;;;;;;;3.10;99.90;;;;;;5108723;28;19927;-80
2022/01/06 07:49:29;;;;;;;;;;;3.10;99.90;;;;;;5112970;28;19908;-79
2022/01/06 07:51:55;;;;;;;;;;;3.20;99.90;;;;;;5097223;27;19980;-80
2022/01/06 07:54:21;;;;;;;;;;;3.20;99.90;;;;;;5115006;27;19911;-79
2022/01/06 07:56:50;;;;;;;;;;;3.20;99.90;;;;;;5132786;27;19907;-80
2022/01/06 07:59:15;;;;;;;;;;;3.20;99.90;;;;;;5098520;27;19911;-79
2022/01/06 08:01:41;;;;;;;;;;;3.30;99.90;;;;;;5133251;27;19915;-79
2022/01/06 08:04:06;;;;;;;;;;;3.20;99.90;;;;;;5089309;28;19916;-78
2022/01/06 08:06:32;;;;;;;;;;;3.30;99.90;;;;;;5096469;28;19915;-79
2022/01/06 08:08:57;;;;;;;;;;;3.30;99.90;;;;;;5113391;28;20000;-79
2022/01/06 08:11:23;;;;;;;;;;;3.40;99.90;;;;;;5089647;28;19992;-79
2022/01/06 08:13:49;;;;;;;;;;;3.40;99.90;;;;;;5113912;28;19957;-81
2022/01/06 08:16:15;;;;;;;;;;;3.50;99.90;;;;;;5114524;28;19939;-78
2022/01/06 08:18:40;;;;;;;;;;;3.70;99.90;;;;;;5098032;28;19945;-79
2022/01/06 08:21:06;;;;;;;;;;;3.80;99.90;;;;;;5113885;28;20321;-80
2022/01/06 08:23:31;;;;;;;;;;;4.00;99.90;;;;;;5114505;28;20042;-79
2022/01/06 08:25:57;;;;;;;;;;;4.10;99.90;;;;;;5091973;28;19970;-79
2022/01/06 08:28:23;;;;;;;;;;;4.20;99.90;;;;;;5094684;28;19916;-79
2022/01/06 08:30:48;;;;;;;;;;;4.40;99.90;;;;;;5104914;28;19907;-79
2022/01/06 08:33:15;;;;;;;;;;;4.50;99.90;;;;;;5097049;27;19980;-79
2022/01/06 08:35:41;;;;;;;;;;;4.80;99.90;;;;;;5093075;28;19932;-79
2022/01/06 08:38:06;;;;;;;;;;;5.00;99.90;;;;;;5123785;27;19913;-79
2022/01/06 08:40:32;;;;;;;;;;;5.30;99.90;;;;;;5099470;27;19934;-79
2022/01/06 08:42:58;;;;;;;;;;;5.50;99.90;;;;;;5115457;27;19925;-79
2022/01/06 08:45:23;;;;;;;;;;;5.80;99.90;;;;;;5099791;27;19947;-79
2022/01/06 08:47:49;;;;;;;;;;;6.10;99.90;;;;;;5117774;27;19923;-79
2022/01/06 08:50:15;;;;;;;;;;;6.30;99.90;;;;;;5118209;27;19908;-80
2022/01/06 08:52:41;;;;;;;;;;;6.50;99.90;;;;;;5137214;27;19993;-79
2022/01/06 08:55:07;;;;;;;;;;;6.70;99.90;;;;;;5117434;27;20002;-78
2022/01/06 08:57:33;;;;;;;;;;;6.90;99.90;;;;;;5118356;27;20317;-78
2022/01/06 09:00:01;;;;;;;;;;;7.20;99.90;;;;;;5100772;27;20052;-79
2022/01/06 09:02:27;;;;;;;;;;;7.50;99.90;;;;;;5118392;27;19930;-79
2022/01/06 09:04:53;;;;;;;;;;;7.70;99.90;;;;;;5101744;27;19918;-80
2022/01/06 09:07:18;;;;;;;;;;;7.90;99.70;;;;;;5117315;27;19911;-79
2022/01/06 09:09:44;;;;;;;;;;;8.20;99.20;;;;;;5118567;27;20000;-79
2022/01/06 09:12:16;;;;;;;;;;;8.40;98.60;;;;;;5118086;27;20266;-79
2022/01/06 09:14:42;;;;;;;;;;;8.60;97.80;;;;;;5119409;27;19911;-80
2022/01/06 09:17:08;;;;;;;;;;;8.70;96.80;;;;;;5137223;27;20282;-78
2022/01/06 09:19:34;;;;;;;;;;;8.80;96.30;;;;;;5123478;27;20287;-79
2022/01/06 09:21:59;;;;;;;;;;;9.00;96.60;;;;;;5104554;27;20363;-80
2022/01/06 09:24:25;;;;;;;;;;;9.20;96.10;;;;;;5120172;27;19912;-78
2022/01/06 09:26:50;;;;;;;;;;;9.50;95.40;;;;;;5119271;27;19961;-78
2022/01/06 09:29:16;;;;;;;;;;;9.70;94.80;;;;;;5117805;27;19986;-79
2022/01/06 09:31:42;;;;;;;;;;;9.90;93.60;;;;;;5117683;27;19960;-77
2022/01/06 09:34:08;;;;;;;;;;;10.10;93.10;;;;;;5116883;27;19907;-79
2022/01/06 09:36:34;;;;;;;;;;;10.20;92.50;;;;;;5118339;27;19908;-78
2022/01/06 09:39:00;;;;;;;;;;;10.20;91.40;;;;;;5135636;27;19994;-81
2022/01/06 09:41:26;;;;;;;;;;;10.20;90.90;;;;;;5117501;27;20012;-77
2022/01/06 09:43:52;;;;;;;;;;;10.30;90.30;;;;;;5117235;27;19969;-77
2022/01/06 09:46:20;;;;;;;;;;;10.30;88.40;;;;;;5114947;27;19919;-77
2022/01/06 09:48:45;;;;;;;;;;;10.30;87.50;;;;;;5116791;27;19911;-77
2022/01/06 09:51:11;;;;;;;;;;;10.40;88.60;;;;;;5099747;27;19961;-76
2022/01/06 09:53:37;;;;;;;;;;;10.50;89.40;;;;;;5096819;28;19912;-77
2022/01/06 09:56:03;;;;;;;;;;;10.70;89.90;;;;;;5117349;27;20371;-82
2022/01/06 09:58:29;;;;;;;;;;;10.90;89.00;;;;;;5114896;27;19915;-76
2022/01/06 10:00:56;;;;;;;;;;;11.30;89.50;;;;;;5133320;27;20333;-77
2022/01/06 10:03:41;;;;;;;;;;;11.50;87.10;;;;;;5114560;27;19934;-78
2022/01/06 10:06:12;;;;;;;;;;;11.70;85.10;;;;;;5116090;27;19966;-77
2022/01/06 10:08:37;;;;;;;;;;;11.80;83.50;;;;;;5116475;27;19911;-78
2022/01/06 10:11:10;;;;;;;;;;;12.00;82.70;;;;;;5116119;27;20272;-82
2022/01/06 10:13:35;;;;;;;;;;;12.20;81.50;;;;;;5098726;27;20014;-77
2022/01/06 10:16:15;;;;;;;;;;;12.40;81.10;;;;;;5131815;27;19994;-78
2022/01/06 10:18:51;;;;;;;;;;;12.50;79.30;;;;;;5134954;27;19972;-77
2022/01/06 10:21:17;;;;;;;;;;;12.60;78.50;;;;;;5115343;27;20014;-77
2022/01/06 10:23:42;;;;;;;;;;;12.80;78.50;;;;;;5116577;27;20026;-78
2022/01/06 10:26:14;;;;;;;;;;;12.90;76.20;;;;;;5115980;27;19920;-78
2022/01/06 10:28:40;;;;;;;;;;;12.90;75.70;;;;;;5130453;27;19912;-78
2022/01/06 10:31:06;;;;;;;;;;;13.00;76.70;;;;;;5134932;27;19953;-83
2022/01/06 10:33:36;;;;;;;;;;;13.00;76.30;;;;;;5131215;27;19961;-79
2022/01/06 10:36:06;;;;;;;;;;;13.00;75.80;;;;;;5134892;27;19911;-78
2022/01/06 10:38:31;;;;;;;;;;;13.10;74.30;;;;;;5134568;27;19912;-78
2022/01/06 10:41:08;;;;;;;;;;;13.10;74.30;;;;;;5116737;27;19960;-77
2022/01/06 10:43:34;;;;;;;;;;;13.10;74.60;;;;;;5135014;27;19960;-78
2022/01/06 10:46:01;;;;;;;;;;;13.20;74.80;;;;;;5115243;27;20030;-78
2022/01/06 10:48:26;;;;;;;;;;;13.10;72.10;;;;;;5130863;27;19956;-78
2022/01/06 10:50:56;;;;;;;;;;;13.10;72.70;;;;;;5092788;28;19919;-78
2022/01/06 10:53:21;;;;;;;;;;;12.90;72.00;;;;;;5114761;27;20363;-78
2022/01/06 10:55:47;;;;;;;;;;;12.80;73.00;;;;;;5135011;27;19919;-78
2022/01/06 10:58:22;;;;;;;;;;;12.60;72.60;;;;;;5133201;27;19911;-78
2022/01/06 11:00:49;;;;;;;;;;;12.60;74.70;;;;;;5115801;27;19929;-78
2022/01/06 11:03:16;;;;;;;;;;;12.80;76.70;;;;;;5115392;27;19915;-78
2022/01/06 11:05:43;;;;;;;;;;;13.10;76.80;;;;;;5134296;27;19966;-79
2022/01/06 11:08:09;;;;;;;;;;;13.20;75.10;;;;;;5113864;27;19947;-84
2022/01/06 11:10:37;;;;;;;;;;;13.40;73.90;;;;;;5088416;27;19915;-80
2022/01/06 11:13:04;;;;;;;;;;;13.40;73.10;;;;;;5085419;27;19916;-79
2022/01/06 11:15:30;;;;;;;;;;;13.40;73.40;;;;;;5115475;27;19960;-79
2022/01/06 11:17:55;;;;;;;;;;;13.50;73.10;;;;;;5133328;27;20324;-79
2022/01/06 11:20:25;;;;;;;;;;;13.40;71.20;;;;;;5115566;27;19998;-79
2022/01/06 11:22:52;;;;;;;;;;;13.40;70.50;;;;;;5113637;27;19920;-79
2022/01/06 11:25:28;;;;;;;;;;;13.30;70.70;;;;;;5098302;27;20272;-79
2022/01/06 11:27:59;;;;;;;;;;;13.20;72.20;;;;;;5112114;27;19956;-82
2022/01/06 11:30:25;;;;;;;;;;;13.30;71.50;;;;;;5111386;27;19908;-79
2022/01/06 11:32:57;;;;;;;;;;;13.40;70.70;;;;;;5098281;27;19933;-79
2022/01/06 11:35:22;;;;;;;;;;;13.40;70.70;;;;;;5113603;27;19918;-79
2022/01/06 11:37:49;;;;;;;;;;;13.40;71.50;;;;;;5114438;27;20013;-80
2022/01/06 11:40:16;;;;;;;;;;;13.30;71.00;;;;;;5132842;27;20358;-80
2022/01/06 11:42:52;;;;;;;;;;;13.20;71.90;;;;;;5114942;27;19923;-79
2022/01/06 11:45:19;;;;;;;;;;;13.20;72.00;;;;;;5128909;27;19916;-79
2022/01/06 11:47:44;;;;;;;;;;;13.20;72.60;;;;;;5114798;27;19908;-79
2022/01/06 11:50:21;;;;;;;;;;;13.10;73.50;;;;;;5097778;27;19959;-83
2022/01/06 11:52:50;;;;;;;;;;;13.10;74.10;;;;;;5133605;27;19915;-78
2022/01/06 11:55:15;;;;;;;;;;;13.00;73.70;;;;;;5114091;27;19994;-80
2022/01/06 11:57:41;;;;;;;;;;;12.90;73.00;;;;;;5111211;28;20072;-79
2022/01/06 12:00:14;;;;;;;;;;;12.80;76.30;;;;;;5114568;27;20283;-79
2022/01/06 12:02:40;;;;;;;;;;;12.60;76.50;;;;;;5132657;27;19922;-79
2022/01/06 12:05:06;;;;;;;;;;;12.30;74.30;;;;;;5114448;27;19907;-81
2022/01/06 12:07:31;;;;;;;;;;;12.00;73.60;;;;;;5114417;28;19934;-80
2022/01/06 12:09:57;;;;;;;;;;;11.80;77.60;;;;;;5114585;27;19907;-79
2022/01/06 12:12:31;;;;;;;;;;;11.80;80.10;;;;;;5114290;28;19946;-80
2022/01/06 12:15:06;;;;;;;;;;;11.70;82.00;;;;;;5133662;28;20002;-80
2022/01/06 12:17:32;;;;;;;;;;;11.50;83.40;;;;;;5113792;28;19971;-80
2022/01/06 12:19:58;;;;;;;;;;;11.40;86.90;;;;;;5115174;28;20408;-80
2022/01/06 12:22:26;;;;;;;;;;;11.40;84.90;;;;;;5114174;28;19934;-80
2022/01/06 12:25:02;;;;;;;;;;;11.30;85.80;;;;;;5097414;28;19921;-80
2022/01/06 12:27:27;;;;;;;;;;;11.20;87.60;;;;;;5114110;28;19915;-80
2022/01/06 12:29:54;;;;;;;;;;;11.20;89.40;;;;;;5133556;28;19914;-80
2022/01/06 12:32:19;;;;;;;;;;;11.30;90.20;;;;;;5127813;27;20002;-79
2022/01/06 12:34:54;;;;;;;;;;;11.20;90.60;;;;;;5113724;28;20010;-79
2022/01/06 12:37:29;;;;;;;;;;;11.20;91.20;;;;;;5130711;28;19915;-80
2022/01/06 12:39:55;;;;;;;;;;;11.20;91.20;;;;;;5097572;28;20371;-79
2022/01/06 12:42:21;;;;;;;;;;;11.00;90.00;;;;;;5113784;28;19971;-79
2022/01/06 12:44:47;;;;;;;;;;;10.90;92.00;;;;;;5112835;28;19954;-78
2022/01/06 12:47:12;;;;;;;;;;;10.80;91.10;;;;;;5111868;28;19963;-78
2022/01/06 12:49:38;;;;;;;;;;;10.60;93.50;;;;;;5112671;28;19919;-79
2022/01/06 12:52:06;;;;;;;;;;;10.50;93.70;;;;;;5112026;28;19911;-79
2022/01/06 12:54:33;;;;;;;;;;;10.40;94.00;;;;;;5096714;28;19912;-78
2022/01/06 12:57:01;;;;;;;;;;;10.40;94.60;;;;;;5114240;28;19958;-79
2022/01/06 12:59:34;;;;;;;;;;;10.40;94.90;;;;;;5113342;28;20351;-80
2022/01/06 13:02:03;;;;;;;;;;;10.40;94.40;;;;;;5132579;28;19914;-80
2022/01/06 13:04:31;;;;;;;;;;;10.40;94.40;;;;;;5112702;28;19911;-80
2022/01/06 13:06:58;;;;;;;;;;;10.30;94.00;;;;;;5132321;28;19939;-79
2022/01/06 13:09:25;;;;;;;;;;;10.20;95.20;;;;;;5113399;28;19907;-79
2022/01/06 13:11:52;;;;;;;;;;;10.20;94.80;;;;;;5114008;28;19938;-79
2022/01/06 13:14:28;;;;;;;;;;;10.00;94.70;;;;;;5131596;28;19932;-82
2022/01/06 13:17:14;;;;;;;;;;;10.00;95.50;;;;;;5129281;28;20044;-78
2022/01/06 13:19:54;;;;;;;;;;;9.90;95.60;;;;;;5110832;28;20525;-78
2022/01/06 13:25:30;;;;;;;;;;;9.80;95.20;;;;;;5133155;27;19942;-83
2022/01/06 13:27:57;;;;;;;;;;;9.50;94.60;;;;;;5117041;27;20347;-80
2022/01/06 13:30:49;;;;;;;;;;;9.50;95.60;;;;;;5135906;27;19964;-80
2022/01/06 13:33:22;;;;;;;;;;;9.40;95.90;;;;;;5113238;27;19915;-80
2022/01/06 13:35:55;;;;;;;;;;;9.30;95.80;;;;;;5114507;27;19918;-79
2022/01/06 13:38:28;;;;;;;;;;;9.10;95.90;;;;;;5116652;27;20090;-85
2022/01/06 13:40:58;;;;;;;;;;;8.90;96.40;;;;;;5130454;27;19911;-79
2022/01/06 13:43:25;;;;;;;;;;;8.90;97.00;;;;;;5133560;27;19980;-80
2022/01/06 13:45:51;;;;;;;;;;;8.80;97.00;;;;;;5117367;27;19942;-80
2022/01/06 13:51:05;;;;;;;;;;;8.70;96.90;;;;;;5136133;27;19915;-79
2022/01/06 13:53:37;;;;;;;;;;;8.80;96.90;;;;;;5117189;27;19945;-78
2022/01/06 13:56:07;;;;;;;;;;;8.70;96.90;;;;;;5116876;27;19915;-79
2022/01/06 13:58:43;;;;;;;;;;;8.70;96.80;;;;;;5105486;28;19916;-79
2022/01/06 14:01:10;;;;;;;;;;;8.70;96.80;;;;;;5111191;27;19920;-79
2022/01/06 14:03:36;;;;;;;;;;;8.70;96.30;;;;;;5134388;27;20117;-79
2022/01/06 14:06:06;;;;;;;;;;;8.80;96.40;;;;;;5134910;27;20355;-78
2022/01/06 14:08:31;;;;;;;;;;;8.80;96.60;;;;;;5114495;27;20411;-78
2022/01/06 14:10:57;;;;;;;;;;;8.80;96.40;;;;;;5133919;27;19991;-78
2022/01/06 14:13:23;;;;;;;;;;;8.70;96.30;;;;;;5099720;27;20006;-81
2022/01/06 14:15:49;;;;;;;;;;;8.60;96.60;;;;;;5116054;27;19972;-80
2022/01/06 14:18:15;;;;;;;;;;;8.50;97.20;;;;;;5095438;27;20521;-78
2022/01/06 14:20:40;;;;;;;;;;;8.50;97.40;;;;;;5114193;27;19911;-80
2022/01/06 14:23:07;;;;;;;;;;;8.40;97.50;;;;;;5114873;27;20355;-79
2022/01/06 14:25:33;;;;;;;;;;;8.40;97.60;;;;;;5132505;27;19923;-79
2022/01/06 14:27:58;;;;;;;;;;;8.40;97.50;;;;;;5114905;27;19930;-79
2022/01/06 14:30:24;;;;;;;;;;;8.50;97.70;;;;;;5096972;27;19911;-78
2022/01/06 14:32:50;;;;;;;;;;;8.50;97.70;;;;;;5113097;27;19916;-80
2022/01/06 14:35:15;;;;;;;;;;;8.50;97.30;;;;;;5115935;27;20048;-79